Coral Topaz — 3ELB7 — position and weather

sailwx.info

Track history (hours):
 
Tides and Currents Weather Stations Pressure Air Temp Water Temp Dewpoint Dewpoint Depression Visibility Wind Speed Wind Dir Waves Ship Positions

Coral Topaz

Last reported at 2016-Jul-18 20:22 UTC. Time now 2016-Jul-28 20:13 UTC.
Position N 36°18' E 140°58'.
Warning: this ship's position is 9 days out of date.

Length 225 m; draft 12.4 m.

Type: Ship. MMSI: 372904000.

Date/timePositionNaut miles runAvg speedWind from/ knotsBaromVisibWave heightAir tempDewpointWater temp
2016-Jul-18 20:22N 36°18' E 140°58'1011.6
2016-Jul-18 19:32N 36°09' E 141°00'1111.4
2016-Jul-18 18:32N 35°58' E 141°01'2210.9
2016-Jul-18 16:32N 35°36' E 141°00'1313.0
2016-Jul-18 15:32N 35°25' E 140°51'1413.2
2016-Jul-18 14:27N 35°13' E 140°42'1112.5
2016-Jul-18 13:33N 35°03' E 140°35'1211.6
2016-Jul-18 12:33N 34°53' E 140°28'1111.1
2016-Jul-18 11:32N 34°45' E 140°18'1110.9
2016-Jul-18 10:33N 34°39' E 140°08'1211.1
2016-Jul-18 09:31N 34°33' E 139°56'  
2016-Jul-14 18:08N 36°25' E 123°47'611.2
2016-Jul-14 17:33N 36°31' E 123°44'1211.1
2016-Jul-14 16:29N 36°43' E 123°39'3711.4
2016-Jul-14 13:15N 37°17' E 123°24'911.9
2016-Jul-14 12:31N 37°26' E 123°20'2512.1
2016-Jul-14 10:30N 37°49' E 123°10'4310.4
2016-Jul-14 06:24N 38°10' E 122°23'1011.5
2016-Jul-14 05:30N 38°13' E 122°10'1111.4
2016-Jul-14 04:33N 38°16' E 121°57'2311.4
2016-Jul-14 02:32N 38°22' E 121°29'1511.3
2016-Jul-14 01:14N 38°27' E 121°11'3210.7
2016-Jul-13 22:14N 38°36' E 120°32'811.5
2016-Jul-13 21:33N 38°38' E 120°22'5911.8
2016-Jul-13 16:33N 38°48' E 119°07'1312.3
2016-Jul-13 15:29N 38°47' E 118°50'1112.0
2016-Jul-13 14:32N 38°48' E 118°36'1611.3
2016-Jul-13 13:06N 38°51' E 118°15'5 9.8
2016-Jul-13 12:34N 38°53' E 118°09'10 9.3
2016-Jul-13 11:32N 38°57' E 117°58'8 7.7
2016-Jul-13 10:33N 38°58' E 117°48'0 0.0
2016-Jul-13 09:16N 38°58' E 117°48'0 0.0
2016-Jul-13 08:28N 38°58' E 117°48'0 0.0
2016-Jul-13 07:28N 38°58' E 117°48'0 0.0
2016-Jul-13 06:04N 38°58' E 117°48'0 0.0
2016-Jul-13 05:28N 38°58' E 117°48'0 0.0
2016-Jul-13 02:28N 38°58' E 117°48'0 0.0
2016-Jul-13 01:16N 38°58' E 117°48'0 0.0
2016-Jul-13 00:28N 38°58' E 117°48'0 0.0
2016-Jul-12 23:28N 38°58' E 117°48'0 0.0
2016-Jul-12 22:04N 38°58' E 117°48'0 0.0
2016-Jul-12 21:16N 38°58' E 117°48'0 0.0
2016-Jul-12 20:22N 38°58' E 117°48'0 0.0
2016-Jul-12 18:22N 38°58' E 117°48'0 0.0
2016-Jul-12 17:28N 38°58' E 117°48'0 0.0
2016-Jul-12 16:10N 38°58' E 117°48'0 0.0
2016-Jul-12 13:28N 38°58' E 117°48'0 0.0
2016-Jul-12 12:28N 38°58' E 117°48'0 0.0
2016-Jul-12 11:28N 38°58' E 117°48'0 0.0
2016-Jul-12 10:22N 38°58' E 117°48'0 0.0
2016-Jul-12 09:28N 38°58' E 117°48'0 0.0
2016-Jul-12 08:10N 38°58' E 117°48'0 0.0
2016-Jul-12 07:22N 38°58' E 117°48'0 0.0
2016-Jul-12 06:28N 38°58' E 117°48'0 0.0
2016-Jul-12 05:22N 38°58' E 117°48'0 0.0
2016-Jul-12 04:28N 38°58' E 117°48'0 0.0
2016-Jul-12 03:28N 38°58' E 117°48'0 0.0
2016-Jul-12 02:28N 38°58' E 117°48'0 0.0
2016-Jul-12 01:28N 38°58' E 117°48'0 0.0
2016-Jul-12 00:28N 38°58' E 117°48'2 1.6
2016-Jul-11 23:16N 38°58' E 117°51'1010.7
2016-Jul-11 22:21N 38°56' E 118°03'3 1.2
2016-Jul-11 20:04N 38°53' E 118°04'0 0.1
2016-Jul-11 17:04N 38°53' E 118°04'0 0.0
2016-Jul-11 16:28N 38°53' E 118°04'0 0.1
2016-Jul-11 15:28N 38°53' E 118°04'0 0.0
2016-Jul-11 13:29N 38°53' E 118°04'0 0.1
2016-Jul-11 12:13N 38°53' E 118°04'0 0.1
2016-Jul-11 11:22N 38°53' E 118°04'1 0.7
2016-Jul-11 09:33N 38°52' E 118°03'7010.0
2016-Jul-11 02:32N 38°47' E 119°33'2411.4
2016-Jul-11 00:26N 38°42' E 120°03'1112.2
2016-Jul-10 23:33N 38°39' E 120°16'2912.4
2016-Jul-10 21:12N 38°37' E 120°53'1213.1
2016-Jul-10 20:16N 38°31' E 121°07'912.6
2016-Jul-10 19:33N 38°28' E 121°18'1312.5
2016-Jul-10 18:32N 38°24' E 121°33'1812.5
2016-Jul-10 17:07N 38°19' E 121°55'2012.7
2016-Jul-10 15:33N 38°14' E 122°19'1313.2
2016-Jul-10 14:33N 38°08' E 122°35'1313.1
2016-Jul-10 13:32N 38°05' E 122°51'1313.0
2016-Jul-10 12:33N 38°01' E 123°06'1312.6
2016-Jul-10 11:33N 37°56' E 123°21'1212.3
2016-Jul-10 10:32N 37°44' E 123°24'1212.2
2016-Jul-10 09:33N 37°32' E 123°27'1212.0
2016-Jul-10 08:33N 37°21' E 123°32'1311.9
2016-Jul-10 07:29N 37°09' E 123°37'1212.2
2016-Jul-10 06:32N 36°58' E 123°40'1212.3
2016-Jul-10 05:33N 36°47' E 123°46'1312.8
2016-Jul-10 04:33N 36°34' E 123°46'1313.0
2016-Jul-10 03:33N 36°21' E 123°49'3912.9
2016-Jul-10 00:31N 35°44' E 124°05'  
Track history (hours):
 
Tides and Currents Weather Stations Pressure Air Temp Water Temp Dewpoint Dewpoint Depression Visibility Wind Speed Wind Dir Waves Ship Positions

Coral Topaz

Last reported at 2016-Jul-18 20:22 UTC. Time now 2016-Jul-28 20:13 UTC.
Position N 36°18' E 140°58'.
Warning: this ship's position is 9 days out of date.

Length 225 m; draft 12.4 m.

Type: Ship. MMSI: 372904000.

Date/timePositionNaut miles runAvg speedWind from/ knotsBaromVisibWave heightAir tempDewpointWater temp
2016-Jul-18 20:22N 36°18' E 140°58'1011.6
2016-Jul-18 19:32N 36°09' E 141°00'1111.4
2016-Jul-18 18:32N 35°58' E 141°01'2210.9
2016-Jul-18 16:32N 35°36' E 141°00'1313.0
2016-Jul-18 15:32N 35°25' E 140°51'1413.2
2016-Jul-18 14:27N 35°13' E 140°42'1112.5
2016-Jul-18 13:33N 35°03' E 140°35'1211.6
2016-Jul-18 12:33N 34°53' E 140°28'1111.1
2016-Jul-18 11:32N 34°45' E 140°18'1110.9
2016-Jul-18 10:33N 34°39' E 140°08'1211.1
2016-Jul-18 09:31N 34°33' E 139°56'  
2016-Jul-14 18:08N 36°25' E 123°47'611.2
2016-Jul-14 17:33N 36°31' E 123°44'1211.1
2016-Jul-14 16:29N 36°43' E 123°39'3711.4
2016-Jul-14 13:15N 37°17' E 123°24'911.9
2016-Jul-14 12:31N 37°26' E 123°20'2512.1
2016-Jul-14 10:30N 37°49' E 123°10'4310.4
2016-Jul-14 06:24N 38°10' E 122°23'1011.5
2016-Jul-14 05:30N 38°13' E 122°10'1111.4
2016-Jul-14 04:33N 38°16' E 121°57'2311.4
2016-Jul-14 02:32N 38°22' E 121°29'1511.3
2016-Jul-14 01:14N 38°27' E 121°11'3210.7
2016-Jul-13 22:14N 38°36' E 120°32'811.5
2016-Jul-13 21:33N 38°38' E 120°22'5911.8
2016-Jul-13 16:33N 38°48' E 119°07'1312.3
2016-Jul-13 15:29N 38°47' E 118°50'1112.0
2016-Jul-13 14:32N 38°48' E 118°36'1611.3
2016-Jul-13 13:06N 38°51' E 118°15'5 9.8
2016-Jul-13 12:34N 38°53' E 118°09'10 9.3
2016-Jul-13 11:32N 38°57' E 117°58'8 7.7
2016-Jul-13 10:33N 38°58' E 117°48'0 0.0
2016-Jul-13 09:16N 38°58' E 117°48'0 0.0
2016-Jul-13 08:28N 38°58' E 117°48'0 0.0
2016-Jul-13 07:28N 38°58' E 117°48'0 0.0
2016-Jul-13 06:04N 38°58' E 117°48'0 0.0
2016-Jul-13 05:28N 38°58' E 117°48'0 0.0
2016-Jul-13 02:28N 38°58' E 117°48'0 0.0
2016-Jul-13 01:16N 38°58' E 117°48'0 0.0
2016-Jul-13 00:28N 38°58' E 117°48'0 0.0
2016-Jul-12 23:28N 38°58' E 117°48'0 0.0
2016-Jul-12 22:04N 38°58' E 117°48'0 0.0
2016-Jul-12 21:16N 38°58' E 117°48'0 0.0
2016-Jul-12 20:22N 38°58' E 117°48'0 0.0
2016-Jul-12 18:22N 38°58' E 117°48'0 0.0
2016-Jul-12 17:28N 38°58' E 117°48'0 0.0
2016-Jul-12 16:10N 38°58' E 117°48'0 0.0
2016-Jul-12 13:28N 38°58' E 117°48'0 0.0
2016-Jul-12 12:28N 38°58' E 117°48'0 0.0
2016-Jul-12 11:28N 38°58' E 117°48'0 0.0
2016-Jul-12 10:22N 38°58' E 117°48'0 0.0
2016-Jul-12 09:28N 38°58' E 117°48'0 0.0
2016-Jul-12 08:10N 38°58' E 117°48'0 0.0
2016-Jul-12 07:22N 38°58' E 117°48'0 0.0
2016-Jul-12 06:28N 38°58' E 117°48'0 0.0
2016-Jul-12 05:22N 38°58' E 117°48'0 0.0
2016-Jul-12 04:28N 38°58' E 117°48'0 0.0
2016-Jul-12 03:28N 38°58' E 117°48'0 0.0
2016-Jul-12 02:28N 38°58' E 117°48'0 0.0
2016-Jul-12 01:28N 38°58' E 117°48'0 0.0
2016-Jul-12 00:28N 38°58' E 117°48'2 1.6
2016-Jul-11 23:16N 38°58' E 117°51'1010.7
2016-Jul-11 22:21N 38°56' E 118°03'3 1.2
2016-Jul-11 20:04N 38°53' E 118°04'0 0.1
2016-Jul-11 17:04N 38°53' E 118°04'0 0.0
2016-Jul-11 16:28N 38°53' E 118°04'0 0.1
2016-Jul-11 15:28N 38°53' E 118°04'0 0.0
2016-Jul-11 13:29N 38°53' E 118°04'0 0.1
2016-Jul-11 12:13N 38°53' E 118°04'0 0.1
2016-Jul-11 11:22N 38°53' E 118°04'1 0.7
2016-Jul-11 09:33N 38°52' E 118°03'7010.0
2016-Jul-11 02:32N 38°47' E 119°33'2411.4
2016-Jul-11 00:26N 38°42' E 120°03'1112.2
2016-Jul-10 23:33N 38°39' E 120°16'2912.4
2016-Jul-10 21:12N 38°37' E 120°53'1213.1
2016-Jul-10 20:16N 38°31' E 121°07'912.6
2016-Jul-10 19:33N 38°28' E 121°18'1312.5
2016-Jul-10 18:32N 38°24' E 121°33'1812.5
2016-Jul-10 17:07N 38°19' E 121°55'2012.7
2016-Jul-10 15:33N 38°14' E 122°19'1313.2
2016-Jul-10 14:33N 38°08' E 122°35'1313.1
2016-Jul-10 13:32N 38°05' E 122°51'1313.0
2016-Jul-10 12:33N 38°01' E 123°06'1312.6
2016-Jul-10 11:33N 37°56' E 123°21'1212.3
2016-Jul-10 10:32N 37°44' E 123°24'1212.2
2016-Jul-10 09:33N 37°32' E 123°27'1212.0
2016-Jul-10 08:33N 37°21' E 123°32'1311.9
2016-Jul-10 07:29N 37°09' E 123°37'1212.2
2016-Jul-10 06:32N 36°58' E 123°40'1212.3
2016-Jul-10 05:33N 36°47' E 123°46'1312.8
2016-Jul-10 04:33N 36°34' E 123°46'1313.0
2016-Jul-10 03:33N 36°21' E 123°49'3912.9
2016-Jul-10 00:31N 35°44' E 124°05'  

Dump ship's entire track history